Time;durP1;ratioP1;P1;durP2;ratioP2;P2;SDS_P1;SDS_P2;PMS_P1;PMS_P2;Temp;Humidity;BMP_temperature;BMP_pressure;BME280_temperature;BME280_humidity;BME280_pressure;Samples;Min_cycle;Max_cycle;Signal;HPM_P1;HPM_P2
2024/01/19 00:00:23;;;;;;;;;;;;;;;-3.73;79.26;100449.59;4195453;28;20486;-68
2024/01/19 00:02:25;;;;;;;;;;;;;;;-3.76;79.16;100460.34;4195729;28;20441;-68
2024/01/19 00:04:27;;;;;;;;;;;;;;;-3.76;79.30;100463.84;4195012;28;20019;-69
2024/01/19 00:06:29;;;;;;;;;;;;;;;-3.78;79.36;100464.88;4195897;28;20039;-69
2024/01/19 00:08:30;;;;;;;;;;;;;;;-3.79;79.11;100466.69;4196181;28;20020;-68
2024/01/19 00:10:33;;;;;;;;;;;;;;;-3.76;79.06;100473.53;4195218;28;19929;-68
2024/01/19 00:12:36;;;;;;;;;;;;;;;-3.78;79.11;100475.44;4195912;28;20035;-67
2024/01/19 00:14:38;;;;;;;;;;;;;;;-3.81;79.00;100487.88;4193939;28;20433;-68
2024/01/19 00:16:41;;;;;;;;;;;;;;;-3.80;79.10;100486.09;4195466;28;19975;-69
2024/01/19 00:18:43;;;;;;;;;;;;;;;-3.80;79.11;100481.66;4169734;28;20028;-68
2024/01/19 00:20:45;;;;;;;;;;;;;;;-3.80;79.26;100476.38;4194587;28;20019;-68
2024/01/19 00:22:47;;;;;;;;;;;;;;;-3.81;79.41;100469.41;4195593;28;20031;-69
2024/01/19 00:24:48;;;;;;;;;;;;;;;-3.82;79.14;100477.41;4195471;28;20018;-68
2024/01/19 00:26:52;;;;;;;;;;;;;;;-3.81;79.25;100479.09;4178292;28;19925;-69
2024/01/19 00:28:55;;;;;;;;;;;;;;;-3.81;79.11;100479.97;4195523;28;20027;-68
2024/01/19 00:30:57;;;;;;;;;;;;;;;-3.82;79.36;100472.13;4195120;28;20023;-69
2024/01/19 00:32:58;;;;;;;;;;;;;;;-3.85;79.19;100478.44;4194752;28;20009;-68
2024/01/19 00:35:00;;;;;;;;;;;;;;;-3.87;79.24;100479.47;4193732;28;19933;-69
2024/01/19 00:37:01;;;;;;;;;;;;;;;-3.87;79.44;100485.59;4194802;28;20122;-67
2024/01/19 00:39:03;;;;;;;;;;;;;;;-3.87;79.50;100490.00;4195845;28;20465;-68
2024/01/19 00:41:05;;;;;;;;;;;;;;;-3.89;79.46;100492.75;4194804;28;19956;-69
2024/01/19 00:43:09;;;;;;;;;;;;;;;-3.89;79.11;100500.66;4194810;28;20012;-68
2024/01/19 00:45:11;;;;;;;;;;;;;;;-3.91;79.15;100504.34;4195350;28;20597;-68
2024/01/19 00:47:14;;;;;;;;;;;;;;;-3.90;78.87;100506.03;4194975;28;20023;-68
2024/01/19 00:49:16;;;;;;;;;;;;;;;-3.91;79.05;100505.19;4195705;28;20028;-66
2024/01/19 00:51:18;;;;;;;;;;;;;;;-3.90;79.16;100504.25;4195176;28;20011;-69
2024/01/19 00:53:20;;;;;;;;;;;;;;;-3.91;78.88;100505.19;4195137;28;20446;-68
2024/01/19 00:55:22;;;;;;;;;;;;;;;-3.91;79.18;100499.06;4195650;28;20036;-68
2024/01/19 00:57:23;;;;;;;;;;;;;;;-3.92;79.20;100502.63;4195614;28;20043;-67
2024/01/19 00:59:27;;;;;;;;;;;;;;;-3.90;79.31;100495.47;4194615;28;20027;-69
2024/01/19 01:01:29;;;;;;;;;;;;;;;-3.91;79.32;100499.91;4194771;28;20019;-69
2024/01/19 01:03:31;;;;;;;;;;;;;;;-3.92;79.31;100498.19;4194186;28;20019;-69
2024/01/19 01:05:33;;;;;;;;;;;;;;;-3.93;79.38;100499.16;4196292;28;20024;-69
2024/01/19 01:07:35;;;;;;;;;;;;;;;-3.93;79.54;100500.91;4198845;28;20017;-68
2024/01/19 01:09:36;;;;;;;;;;;;;;;-3.92;79.45;100500.84;4198107;28;20015;-69
2024/01/19 01:11:38;;;;;;;;;;;;;;;-3.94;79.47;100501.88;4197594;28;20123;-68
2024/01/19 01:13:40;;;;;;;;;;;;;;;-3.96;79.52;100507.25;4198442;28;20011;-69
2024/01/19 01:15:42;;;;;;;;;;;;;;;-3.94;79.60;100512.44;4198629;28;20035;-68
2024/01/19 01:17:44;;;;;;;;;;;;;;;-3.96;79.58;100512.53;4198521;28;20388;-69
2024/01/19 01:19:46;;;;;;;;;;;;;;;-3.92;79.70;100515.81;4198466;28;20031;-68
2024/01/19 01:21:48;;;;;;;;;;;;;;;-3.95;79.88;100514.25;4198292;28;20016;-68
2024/01/19 01:23:50;;;;;;;;;;;;;;;-3.99;79.87;100521.47;4198691;28;20024;-68
2024/01/19 01:25:52;;;;;;;;;;;;;;;-4.00;79.87;100522.41;4198684;28;20007;-68
2024/01/19 01:27:54;;;;;;;;;;;;;;;-4.01;79.86;100525.97;4198676;28;20368;-68
2024/01/19 01:29:56;;;;;;;;;;;;;;;-4.01;79.95;100530.41;4197459;28;20024;-68
2024/01/19 01:31:59;;;;;;;;;;;;;;;-4.03;80.04;100527.88;4198307;28;20011;-68
2024/01/19 01:34:03;;;;;;;;;;;;;;;-4.04;80.05;100526.16;4198468;28;20027;-68
2024/01/19 01:36:05;;;;;;;;;;;;;;;-4.04;80.09;100523.53;4198498;28;20032;-68
2024/01/19 01:38:07;;;;;;;;;;;;;;;-4.02;79.93;100526.91;4198673;28;19928;-68
2024/01/19 01:40:11;;;;;;;;;;;;;;;-4.03;80.01;100533.16;4197182;28;20011;-68
2024/01/19 01:42:13;;;;;;;;;;;;;;;-4.02;80.28;100532.19;4197925;28;20015;-68
2024/01/19 01:44:15;;;;;;;;;;;;;;;-4.00;80.21;100530.34;4198067;28;20027;-69
2024/01/19 01:46:17;;;;;;;;;;;;;;;-4.01;80.17;100530.41;4197659;28;20028;-68
2024/01/19 01:48:21;;;;;;;;;;;;;;;-4.02;80.01;100536.63;4163652;28;20039;-68
2024/01/19 01:50:23;;;;;;;;;;;;;;;-4.04;80.19;100536.72;4197810;28;20015;-69
2024/01/19 01:52:24;;;;;;;;;;;;;;;-4.07;80.13;100526.34;4197875;28;20059;-69
2024/01/19 01:54:26;;;;;;;;;;;;;;;-4.07;80.19;100536.06;4198233;28;19931;-69
2024/01/19 01:56:29;;;;;;;;;;;;;;;-4.08;79.99;100532.53;4198019;28;20043;-68
2024/01/19 01:58:31;;;;;;;;;;;;;;;-4.07;80.20;100533.41;4197719;28;20031;-68
2024/01/19 02:00:33;;;;;;;;;;;;;;;-4.07;80.24;100534.25;4197198;28;20023;-68
2024/01/19 02:02:35;;;;;;;;;;;;;;;-4.06;80.17;100532.44;4197193;28;20051;-68
2024/01/19 02:04:39;;;;;;;;;;;;;;;-4.07;80.37;100530.78;4197509;28;20027;-68
2024/01/19 02:06:41;;;;;;;;;;;;;;;-4.08;80.42;100539.63;4198289;28;20023;-68
2024/01/19 02:08:43;;;;;;;;;;;;;;;-4.09;80.61;100536.13;4198009;28;20027;-68
2024/01/19 02:10:45;;;;;;;;;;;;;;;-4.08;80.67;100537.81;4196676;28;20031;-68
2024/01/19 02:12:47;;;;;;;;;;;;;;;-4.09;80.59;100538.78;4197186;28;20027;-68
2024/01/19 02:14:49;;;;;;;;;;;;;;;-4.09;80.74;100544.03;4196939;28;20016;-68
2024/01/19 02:16:51;;;;;;;;;;;;;;;-4.09;80.74;100551.09;4196464;28;20119;-68
2024/01/19 02:18:54;;;;;;;;;;;;;;;-4.08;80.76;100547.53;4196945;28;19970;-68
2024/01/19 02:20:57;;;;;;;;;;;;;;;-4.06;80.91;100554.44;4197301;28;20023;-68
2024/01/19 02:22:59;;;;;;;;;;;;;;;-4.04;81.06;100562.25;4197264;28;20014;-68
2024/01/19 02:25:02;;;;;;;;;;;;;;;-4.05;80.97;100561.38;4197827;28;20026;-69
2024/01/19 02:27:05;;;;;;;;;;;;;;;-4.02;81.08;100553.28;4197823;28;20023;-69
2024/01/19 02:29:06;;;;;;;;;;;;;;;-4.00;81.02;100563.75;4197404;28;20461;-68
2024/01/19 02:31:08;;;;;;;;;;;;;;;-3.99;81.13;100553.13;4197180;28;19928;-68
2024/01/19 02:33:09;;;;;;;;;;;;;;;-3.96;81.26;100564.47;4197326;28;20003;-68
2024/01/19 02:35:11;;;;;;;;;;;;;;;-3.93;81.23;100558.97;4197128;28;20015;-68
2024/01/19 02:37:13;;;;;;;;;;;;;;;-3.91;81.30;100559.75;4197610;28;20051;-68
2024/01/19 02:39:15;;;;;;;;;;;;;;;-3.90;81.43;100566.72;4197546;28;20378;-68
2024/01/19 02:41:18;;;;;;;;;;;;;;;-3.89;81.47;100565.78;4195739;28;20027;-68
2024/01/19 02:43:20;;;;;;;;;;;;;;;-3.89;81.53;100563.97;4196760;28;20015;-68
2024/01/19 02:45:22;;;;;;;;;;;;;;;-3.87;81.49;100569.16;4179272;28;20028;-68
2024/01/19 02:47:24;;;;;;;;;;;;;;;-3.86;81.60;100573.53;4197416;28;20020;-68
2024/01/19 02:49:26;;;;;;;;;;;;;;;-3.86;81.50;100569.09;4196438;28;20028;-68
2024/01/19 02:51:28;;;;;;;;;;;;;;;-3.86;81.39;100574.38;4196845;28;20019;-67
2024/01/19 02:53:30;;;;;;;;;;;;;;;-3.84;81.51;100582.19;4197454;28;20020;-68
2024/01/19 02:55:32;;;;;;;;;;;;;;;-3.85;81.68;100576.06;4197258;28;20015;-68
2024/01/19 02:57:34;;;;;;;;;;;;;;;-3.84;81.59;100577.78;4195697;28;20039;-68
2024/01/19 02:59:36;;;;;;;;;;;;;;;-3.84;81.44;100571.63;4194904;28;20035;-68
2024/01/19 03:01:38;;;;;;;;;;;;;;;-3.85;81.20;100573.44;4179237;28;20018;-68
2024/01/19 03:03:40;;;;;;;;;;;;;;;-3.85;80.97;100575.22;4196648;28;20039;-67
2024/01/19 03:05:42;;;;;;;;;;;;;;;-3.85;81.00;100578.72;4197480;28;20019;-68
2024/01/19 03:07:44;;;;;;;;;;;;;;;-3.86;80.79;100584.06;4196900;28;20458;-68
2024/01/19 03:09:46;;;;;;;;;;;;;;;-3.85;80.77;100588.44;4195793;28;20028;-68
2024/01/19 03:11:47;;;;;;;;;;;;;;;-3.84;80.66;100579.56;4195476;28;20024;-68
2024/01/19 03:13:53;;;;;;;;;;;;;;;-3.86;80.66;100592.00;4195235;28;20390;-67
2024/01/19 03:15:57;;;;;;;;;;;;;;;-3.87;80.56;100588.50;4196231;28;20019;-68
2024/01/19 03:17:59;;;;;;;;;;;;;;;-3.88;80.47;100588.59;4196736;28;20031;-68
2024/01/19 03:20:01;;;;;;;;;;;;;;;-3.86;80.54;100592.00;4196503;28;19925;-67
2024/01/19 03:22:03;;;;;;;;;;;;;;;-3.87;80.36;100592.91;4196126;28;20011;-67
2024/01/19 03:24:04;;;;;;;;;;;;;;;-3.87;80.20;100592.91;4196902;28;20024;-67
2024/01/19 03:26:06;;;;;;;;;;;;;;;-3.90;80.25;100588.69;4196859;28;19968;-69
2024/01/19 03:28:08;;;;;;;;;;;;;;;-3.90;80.21;100588.69;4196649;28;20015;-67
2024/01/19 03:30:12;;;;;;;;;;;;;;;-3.90;80.04;100582.53;4195613;28;20424;-68
2024/01/19 03:32:14;;;;;;;;;;;;;;;-3.93;80.02;100578.31;4196389;28;20388;-69
2024/01/19 03:34:16;;;;;;;;;;;;;;;-3.92;79.92;100587.06;4196304;28;20043;-68
2024/01/19 03:36:18;;;;;;;;;;;;;;;-3.94;79.92;100578.41;4196442;28;20019;-68
2024/01/19 03:38:20;;;;;;;;;;;;;;;-3.97;79.76;100578.56;4196402;28;20019;-67
2024/01/19 03:40:22;;;;;;;;;;;;;;;-3.99;79.79;100576.03;4195707;28;19991;-67
2024/01/19 03:42:26;;;;;;;;;;;;;;;-4.01;79.82;100580.53;4195793;28;20338;-68
2024/01/19 03:44:28;;;;;;;;;;;;;;;-4.03;79.97;100583.28;4195552;28;20007;-67
2024/01/19 03:46:31;;;;;;;;;;;;;;;-4.03;80.26;100579.75;4196069;28;20023;-68
2024/01/19 03:48:33;;;;;;;;;;;;;;;-4.07;80.01;100580.88;4195493;28;20011;-68
2024/01/19 03:50:35;;;;;;;;;;;;;;;-4.09;80.05;100586.25;4196268;28;20038;-68
2024/01/19 03:52:37;;;;;;;;;;;;;;;-4.09;80.22;100585.38;4195109;28;20011;-68
2024/01/19 03:54:39;;;;;;;;;;;;;;;-4.12;80.21;100583.78;4195614;28;20018;-67
2024/01/19 03:56:40;;;;;;;;;;;;;;;-4.11;80.31;100582.84;4196433;28;20039;-68
2024/01/19 03:58:42;;;;;;;;;;;;;;;-4.12;80.47;100589.06;4195324;28;19970;-68
2024/01/19 04:00:44;;;;;;;;;;;;;;;-4.11;80.34;100592.53;4195045;28;19928;-68
2024/01/19 04:02:48;;;;;;;;;;;;;;;-4.10;80.67;100587.19;4195924;28;20023;-69
2024/01/19 04:04:50;;;;;;;;;;;;;;;-4.09;80.62;100590.66;4195646;28;20399;-69
2024/01/19 04:06:55;;;;;;;;;;;;;;;-4.09;80.73;100594.16;4195192;28;20383;-68
2024/01/19 04:08:56;;;;;;;;;;;;;;;-4.08;80.58;100587.09;4195466;28;20011;-68
2024/01/19 04:10:58;;;;;;;;;;;;;;;-4.09;80.76;100591.53;4194861;28;20359;-68
2024/01/19 04:13:00;;;;;;;;;;;;;;;-4.09;80.80;100594.16;4194700;28;21309;-68
2024/01/19 04:15:02;;;;;;;;;;;;;;;-4.08;80.90;100597.66;4195480;28;20142;-68
2024/01/19 04:17:03;;;;;;;;;;;;;;;-4.09;80.73;100591.53;4195228;28;20024;-68
2024/01/19 04:19:08;;;;;;;;;;;;;;;-4.11;80.76;100593.38;4194914;28;20027;-68
2024/01/19 04:21:10;;;;;;;;;;;;;;;-4.06;80.96;100598.41;4194961;28;19924;-69
2024/01/19 04:23:16;;;;;;;;;;;;;;;-4.04;81.16;100602.66;4196166;28;20366;-68
2024/01/19 04:25:18;;;;;;;;;;;;;;;-4.02;81.23;100605.22;4196000;28;20019;-68
2024/01/19 04:27:19;;;;;;;;;;;;;;;-3.99;81.30;100607.69;4195593;28;20026;-68
2024/01/19 04:29:21;;;;;;;;;;;;;;;-3.96;81.15;100601.41;4195623;28;19967;-68
2024/01/19 04:31:23;;;;;;;;;;;;;;;-3.94;81.19;100600.34;4194825;28;20035;-68
2024/01/19 04:33:25;;;;;;;;;;;;;;;-3.92;81.06;100597.63;4195491;28;20099;-68
2024/01/19 04:35:28;;;;;;;;;;;;;;;-3.92;81.20;100598.47;4177980;28;20035;-68
2024/01/19 04:37:30;;;;;;;;;;;;;;;-3.90;80.98;100593.09;4195655;28;20011;-68
2024/01/19 04:39:32;;;;;;;;;;;;;;;-3.90;80.90;100607.16;4194843;28;20027;-68
2024/01/19 04:41:34;;;;;;;;;;;;;;;-3.89;80.81;100614.13;4194562;28;19932;-68
2024/01/19 04:43:36;;;;;;;;;;;;;;;-3.89;80.78;100616.75;4195179;28;20016;-68
2024/01/19 04:45:38;;;;;;;;;;;;;;;-3.88;80.62;100618.47;4195368;28;20024;-68
2024/01/19 04:47:40;;;;;;;;;;;;;;;-3.88;80.68;100610.56;4193899;28;20012;-68
2024/01/19 04:49:42;;;;;;;;;;;;;;;-3.90;80.69;100612.44;4195238;28;20374;-67
2024/01/19 04:51:45;;;;;;;;;;;;;;;-3.91;80.88;100615.16;4195188;28;20054;-69
2024/01/19 04:53:46;;;;;;;;;;;;;;;-3.92;80.88;100626.66;4195666;28;20023;-68
2024/01/19 04:55:48;;;;;;;;;;;;;;;-3.94;80.86;100617.97;4194574;28;20396;-68
2024/01/19 04:57:50;;;;;;;;;;;;;;;-3.92;80.96;100631.91;4194969;28;20358;-68
2024/01/19 04:59:51;;;;;;;;;;;;;;;-3.95;80.99;100626.81;4193596;28;20023;-67
2024/01/19 05:01:53;;;;;;;;;;;;;;;-3.96;80.97;100628.63;4194361;28;19985;-68
2024/01/19 05:03:54;;;;;;;;;;;;;;;-3.93;80.98;100630.22;4194458;28;20028;-68
2024/01/19 05:05:56;;;;;;;;;;;;;;;-3.94;80.86;100628.53;4194249;28;19940;-67
2024/01/19 05:08:00;;;;;;;;;;;;;;;-3.96;80.92;100618.06;4195249;28;20370;-68
2024/01/19 05:10:02;;;;;;;;;;;;;;;-3.92;80.62;100632.75;4194975;28;20032;-67
2024/01/19 05:12:04;;;;;;;;;;;;;;;-3.92;80.53;100622.22;4194490;28;20028;-68
2024/01/19 05:14:06;;;;;;;;;;;;;;;-3.93;80.37;100627.56;4192846;28;20027;-69
2024/01/19 05:16:09;;;;;;;;;;;;;;;-3.92;80.23;100621.38;4191855;28;19967;-67
2024/01/19 05:18:11;;;;;;;;;;;;;;;-3.89;80.26;100637.03;4194686;28;20441;-68
2024/01/19 05:20:13;;;;;;;;;;;;;;;-3.90;80.15;100644.09;4193503;28;20019;-68
2024/01/19 05:22:15;;;;;;;;;;;;;;;-3.89;80.12;100640.50;4193141;28;20504;-68
2024/01/19 05:24:19;;;;;;;;;;;;;;;-3.89;80.08;100642.31;4194403;28;20377;-68
2024/01/19 05:26:20;;;;;;;;;;;;;;;-3.91;80.21;100645.03;4193303;28;20380;-68
2024/01/19 05:28:23;;;;;;;;;;;;;;;-3.90;80.17;100652.03;4189980;28;20023;-68
2024/01/19 05:30:25;;;;;;;;;;;;;;;-3.91;80.22;100649.47;4193477;28;20019;-69
2024/01/19 05:32:27;;;;;;;;;;;;;;;-3.91;80.25;100652.94;4193294;28;20434;-67
2024/01/19 05:34:29;;;;;;;;;;;;;;;-3.90;80.27;100651.16;4194574;28;20027;-68
2024/01/19 05:36:31;;;;;;;;;;;;;;;-3.88;80.25;100658.06;4194266;28;20446;-68
2024/01/19 05:38:33;;;;;;;;;;;;;;;-3.89;80.14;100653.69;4193142;28;20019;-69
2024/01/19 05:40:36;;;;;;;;;;;;;;;-3.88;80.31;100652.78;4194311;28;20032;-68
2024/01/19 05:42:38;;;;;;;;;;;;;;;-3.85;80.23;100655.25;4174561;28;20020;-71
2024/01/19 05:44:40;;;;;;;;;;;;;;;-3.86;80.24;100650.88;4194273;28;20469;-67
2024/01/19 05:46:42;;;;;;;;;;;;;;;-3.84;80.35;100656.97;4194150;28;20038;-68
2024/01/19 05:48:44;;;;;;;;;;;;;;;-3.83;80.29;100663.06;4194124;28;20019;-69
2024/01/19 05:50:46;;;;;;;;;;;;;;;-3.82;80.32;100663.00;4192710;28;20027;-68
2024/01/19 05:52:48;;;;;;;;;;;;;;;-3.82;80.33;100659.50;4176461;28;20108;-68
2024/01/19 05:54:50;;;;;;;;;;;;;;;-3.82;80.58;100663.00;4197002;28;20079;-68
2024/01/19 05:56:53;;;;;;;;;;;;;;;-3.82;80.51;100665.63;4196492;28;20901;-68
2024/01/19 05:58:56;;;;;;;;;;;;;;;-3.82;80.43;100664.78;4196074;28;20019;-69
2024/01/19 06:00:58;;;;;;;;;;;;;;;-3.82;80.62;100663.00;4196614;28;20027;-70
2024/01/19 06:03:00;;;;;;;;;;;;;;;-3.83;80.65;100656.00;4195959;28;19931;-67
2024/01/19 06:05:02;;;;;;;;;;;;;;;-3.83;80.71;100663.91;4192260;28;20023;-67
2024/01/19 06:07:04;;;;;;;;;;;;;;;-3.80;80.49;100658.47;4195618;28;20019;-68
2024/01/19 06:09:08;;;;;;;;;;;;;;;-3.80;80.76;100668.19;4196486;28;20087;-68
2024/01/19 06:11:09;;;;;;;;;;;;;;;-3.80;80.96;100661.09;4195458;28;20494;-66
2024/01/19 06:13:13;;;;;;;;;;;;;;;-3.79;80.83;100664.63;4196088;28;20019;-69
2024/01/19 06:15:15;;;;;;;;;;;;;;;-3.80;81.10;100670.81;4193611;28;20023;-68
2024/01/19 06:17:18;;;;;;;;;;;;;;;-3.81;80.91;100669.97;4159175;28;19933;-68
2024/01/19 06:19:21;;;;;;;;;;;;;;;-3.80;80.81;100678.72;4160558;28;19929;-71
2024/01/19 06:21:23;;;;;;;;;;;;;;;-3.80;80.73;100684.00;4195560;28;20015;-69
2024/01/19 06:23:25;;;;;;;;;;;;;;;-3.81;80.63;100688.44;4195164;28;20015;-68
2024/01/19 06:25:27;;;;;;;;;;;;;;;-3.79;80.68;100693.63;4194972;28;20040;-68
2024/01/19 06:27:29;;;;;;;;;;;;;;;-3.81;80.72;100693.72;4194412;28;20615;-69
2024/01/19 06:29:33;;;;;;;;;;;;;;;-3.81;80.67;100700.78;4177119;28;20031;-68
2024/01/19 06:31:35;;;;;;;;;;;;;;;-3.80;80.56;100691.94;4194040;28;20011;-69
2024/01/19 06:33:38;;;;;;;;;;;;;;;-3.80;80.72;100700.69;4177384;28;20095;-69
2024/01/19 06:35:39;;;;;;;;;;;;;;;-3.80;80.53;100700.69;4194922;28;20360;-69
2024/01/19 06:37:41;;;;;;;;;;;;;;;-3.80;80.50;100695.41;4193098;28;20067;-69
2024/01/19 06:39:45;;;;;;;;;;;;;;;-3.76;80.53;100703.16;4194484;28;20022;-71
2024/01/19 06:41:48;;;;;;;;;;;;;;;-3.77;80.48;100704.13;4194821;28;20015;-68
2024/01/19 06:43:50;;;;;;;;;;;;;;;-3.77;80.39;100706.75;4195955;28;20445;-68
2024/01/19 06:45:53;;;;;;;;;;;;;;;-3.76;80.15;100711.94;4196133;28;20015;-68
2024/01/19 06:47:54;;;;;;;;;;;;;;;-3.78;80.15;100716.44;4192630;28;20019;-70
2024/01/19 06:49:56;;;;;;;;;;;;;;;-3.78;80.17;100724.34;4193665;28;20406;-68
2024/01/19 06:52:01;;;;;;;;;;;;;;;-3.76;80.32;100730.41;4195494;28;20044;-68
2024/01/19 06:54:04;;;;;;;;;;;;;;;-3.73;80.14;100727.63;4195573;28;20434;-69
2024/01/19 06:56:06;;;;;;;;;;;;;;;-3.71;80.18;100728.38;4193150;28;20357;-69
2024/01/19 06:58:08;;;;;;;;;;;;;;;-3.68;80.11;100730.84;4194365;28;20043;-68
2024/01/19 07:00:10;;;;;;;;;;;;;;;-3.69;80.12;100723.00;4195810;28;20015;-68
2024/01/19 07:02:14;;;;;;;;;;;;;;;-3.70;80.01;100729.22;4195717;28;20015;-67
2024/01/19 07:04:16;;;;;;;;;;;;;;;-3.73;80.05;100727.63;4194892;28;19936;-68
2024/01/19 07:06:18;;;;;;;;;;;;;;;-3.72;80.15;100731.09;4195365;28;20015;-68
2024/01/19 07:08:20;;;;;;;;;;;;;;;-3.72;80.31;100721.38;4196329;28;20016;-67
2024/01/19 07:10:22;;;;;;;;;;;;;;;-3.71;80.22;100727.53;4193663;28;20051;-69
2024/01/19 07:12:24;;;;;;;;;;;;;;;-3.72;80.25;100734.56;4195803;28;20027;-68
2024/01/19 07:14:26;;;;;;;;;;;;;;;-3.72;80.19;100725.81;4196609;28;20031;-68
2024/01/19 07:16:28;;;;;;;;;;;;;;;-3.69;80.44;100731.75;4196704;28;20020;-67
2024/01/19 07:18:32;;;;;;;;;;;;;;;-3.68;80.36;100737.91;4195088;28;20461;-68
2024/01/19 07:20:34;;;;;;;;;;;;;;;-3.67;80.33;100740.47;4195492;28;20007;-68
2024/01/19 07:22:36;;;;;;;;;;;;;;;-3.68;80.37;100748.47;4196490;28;20019;-68
2024/01/19 07:24:38;;;;;;;;;;;;;;;-3.65;80.44;100740.38;4196248;28;19925;-68
2024/01/19 07:26:40;;;;;;;;;;;;;;;-3.64;80.37;100742.94;4169662;28;20019;-68
2024/01/19 07:28:42;;;;;;;;;;;;;;;-3.64;80.38;100748.22;4196010;28;20374;-69
2024/01/19 07:30:44;;;;;;;;;;;;;;;-3.62;80.41;100754.25;4177917;28;20016;-69
2024/01/19 07:32:46;;;;;;;;;;;;;;;-3.61;80.35;100763.00;4196161;28;20019;-70
2024/01/19 07:34:49;;;;;;;;;;;;;;;-3.62;80.30;100759.53;4196062;28;20019;-68
2024/01/19 07:36:50;;;;;;;;;;;;;;;-3.61;80.27;100765.66;4196215;28;20016;-69
2024/01/19 07:38:53;;;;;;;;;;;;;;;-3.61;80.42;100765.66;4195975;28;20019;-69
2024/01/19 07:40:55;;;;;;;;;;;;;;;-3.58;80.59;100770.78;4195252;28;20449;-69
2024/01/19 07:42:57;;;;;;;;;;;;;;;-3.56;80.59;100770.69;4195744;28;20023;-67
2024/01/19 07:44:59;;;;;;;;;;;;;;;-3.55;80.51;100773.25;4195213;28;19932;-68
2024/01/19 07:47:01;;;;;;;;;;;;;;;-3.57;80.75;100776.88;4193730;28;20104;-68
2024/01/19 07:49:03;;;;;;;;;;;;;;;-3.57;80.96;100771.59;4196072;28;20018;-69
2024/01/19 07:51:06;;;;;;;;;;;;;;;-3.56;80.97;100779.44;4195672;28;20031;-69
2024/01/19 07:53:08;;;;;;;;;;;;;;;-3.54;81.12;100780.22;4168492;28;20060;-68
2024/01/19 07:55:10;;;;;;;;;;;;;;;-3.53;81.20;100778.44;4195691;28;20454;-69
2024/01/19 07:57:12;;;;;;;;;;;;;;;-3.52;81.13;100782.78;4196093;28;20011;-68
2024/01/19 07:59:14;;;;;;;;;;;;;;;-3.52;81.14;100786.28;4196178;28;20033;-70
2024/01/19 08:01:16;;;;;;;;;;;;;;;-3.49;81.21;100790.53;4192522;28;20066;-70
2024/01/19 08:03:19;;;;;;;;;;;;;;;-3.49;81.04;100788.75;4194567;28;20046;-69
2024/01/19 08:05:20;;;;;;;;;;;;;;;-3.46;81.14;100790.38;4191781;28;20810;-68
2024/01/19 08:07:24;;;;;;;;;;;;;;;-3.44;81.26;100799.06;4195782;28;19986;-68
2024/01/19 08:09:26;;;;;;;;;;;;;;;-3.42;81.20;100794.53;4196209;28;20056;-68
2024/01/19 08:11:29;;;;;;;;;;;;;;;-3.38;81.24;100800.50;4195005;28;20023;-68
2024/01/19 08:13:30;;;;;;;;;;;;;;;-3.35;81.21;100802.97;4195729;28;20023;-68
2024/01/19 08:15:33;;;;;;;;;;;;;;;-3.36;81.35;100809.19;4195622;28;20023;-69
2024/01/19 08:17:34;;;;;;;;;;;;;;;-3.35;81.44;100816.19;4196095;28;20011;-68
2024/01/19 08:19:36;;;;;;;;;;;;;;;-3.32;81.69;100816.00;4195615;28;20011;-70
2024/01/19 08:21:41;;;;;;;;;;;;;;;-3.31;81.69;100815.94;4194464;28;20015;-70
2024/01/19 08:23:44;;;;;;;;;;;;;;;-3.29;81.68;100821.97;4195193;28;20059;-68
2024/01/19 08:25:46;;;;;;;;;;;;;;;-3.23;81.70;100817.28;4195785;28;19963;-69
2024/01/19 08:27:49;;;;;;;;;;;;;;;-3.21;82.04;100818.91;4196167;28;20019;-68
2024/01/19 08:29:50;;;;;;;;;;;;;;;-3.18;82.32;100813.44;4195323;28;20019;-68
2024/01/19 08:31:53;;;;;;;;;;;;;;;-3.15;82.30;100822.97;4193977;28;20028;-69
2024/01/19 08:33:56;;;;;;;;;;;;;;;-3.10;82.44;100820.94;4193765;28;20028;-69
2024/01/19 08:35:58;;;;;;;;;;;;;;;-3.06;82.46;100826.88;4190627;28;20011;-71
2024/01/19 08:37:59;;;;;;;;;;;;;;;-3.02;82.34;100823.97;4191593;28;20407;-72
2024/01/19 08:40:02;;;;;;;;;;;;;;;-2.95;82.45;100827.97;4187946;28;20881;-73
2024/01/19 08:42:03;;;;;;;;;;;;;;;-2.92;82.57;100824.31;4192048;28;20372;-69
2024/01/19 08:44:06;;;;;;;;;;;;;;;-2.85;82.51;100836.25;4194223;28;20442;-69
2024/01/19 08:46:08;;;;;;;;;;;;;;;-2.81;82.47;100836.91;4191568;28;19925;-72
2024/01/19 08:48:10;;;;;;;;;;;;;;;-2.77;82.50;100831.34;4176894;28;20016;-71
2024/01/19 08:50:12;;;;;;;;;;;;;;;-2.72;82.55;100842.50;4196162;28;20047;-70
2024/01/19 08:52:13;;;;;;;;;;;;;;;-2.66;82.51;100836.00;4193925;28;20402;-68
2024/01/19 08:54:16;;;;;;;;;;;;;;;-2.63;82.57;100838.47;4193839;28;20422;-70
2024/01/19 08:56:22;;;;;;;;;;;;;;;-2.57;82.83;100843.41;4195427;28;20090;-68
2024/01/19 08:58:24;;;;;;;;;;;;;;;-2.50;82.81;100835.97;4195243;28;20024;-70
2024/01/19 09:00:26;;;;;;;;;;;;;;;-2.46;82.76;100848.06;4193154;28;20023;-70
2024/01/19 09:02:28;;;;;;;;;;;;;;;-2.41;82.70;100847.81;4194689;28;20023;-70
2024/01/19 09:04:30;;;;;;;;;;;;;;;-2.35;82.71;100850.09;4193916;28;20019;-68
2024/01/19 09:06:31;;;;;;;;;;;;;;;-2.30;82.87;100849.81;4176720;28;19991;-69
2024/01/19 09:08:33;;;;;;;;;;;;;;;-2.26;82.88;100854.81;4195223;28;20361;-71
2024/01/19 09:10:35;;;;;;;;;;;;;;;-2.19;82.88;100861.44;4194067;28;20051;-71
2024/01/19 09:12:39;;;;;;;;;;;;;;;-2.13;82.82;100852.31;4194253;28;20094;-70
2024/01/19 09:14:41;;;;;;;;;;;;;;;-2.07;82.46;100854.56;4194441;28;20031;-72
2024/01/19 09:16:43;;;;;;;;;;;;;;;-2.01;82.36;100864.78;4194047;28;20023;-69
2024/01/19 09:18:45;;;;;;;;;;;;;;;-1.94;82.15;100854.69;4194699;28;20023;-69
2024/01/19 09:20:47;;;;;;;;;;;;;;;-1.86;81.73;100867.44;4191456;28;20371;-70
2024/01/19 09:22:49;;;;;;;;;;;;;;;-1.79;81.46;100875.84;4192579;28;20019;-71
2024/01/19 09:24:51;;;;;;;;;;;;;;;-1.75;81.15;100864.97;4194567;28;20018;-69
2024/01/19 09:26:54;;;;;;;;;;;;;;;-1.68;80.70;100874.25;4186682;28;19935;-75
2024/01/19 09:28:57;;;;;;;;;;;;;;;-1.63;80.26;100885.41;4187973;28;20069;-72
2024/01/19 09:30:59;;;;;;;;;;;;;;;-1.57;80.18;100876.22;4194129;28;20365;-70
2024/01/19 09:33:01;;;;;;;;;;;;;;;-1.54;79.79;100878.69;4195378;28;20469;-71
2024/01/19 09:35:04;;;;;;;;;;;;;;;-1.48;79.59;100888.91;4196891;28;20031;-70
2024/01/19 09:37:06;;;;;;;;;;;;;;;-1.42;79.44;100889.47;4195595;28;20515;-69
2024/01/19 09:39:08;;;;;;;;;;;;;;;-1.37;79.02;100884.72;4196641;28;20035;-70
2024/01/19 09:41:13;;;;;;;;;;;;;;;-1.33;78.90;100886.25;4195070;28;20015;-72
2024/01/19 09:43:15;;;;;;;;;;;;;;;-1.27;78.60;100893.78;4195236;28;20011;-70
2024/01/19 09:45:19;;;;;;;;;;;;;;;-1.20;78.36;100883.66;4196121;28;20043;-71
2024/01/19 09:47:20;;;;;;;;;;;;;;;-1.15;78.17;100893.00;4196693;28;19935;-70
2024/01/19 09:49:24;;;;;;;;;;;;;;;-1.10;78.14;100895.38;4197510;28;20456;-70
2024/01/19 09:51:28;;;;;;;;;;;;;;;-1.05;77.83;100903.03;4196747;28;20044;-70
2024/01/19 09:53:32;;;;;;;;;;;;;;;-1.02;77.82;100906.38;4197717;28;20011;-70
2024/01/19 09:55:34;;;;;;;;;;;;;;;-0.97;77.84;100908.69;4197287;28;20018;-71
2024/01/19 09:57:36;;;;;;;;;;;;;;;-0.93;77.43;100919.00;4197554;28;20015;-69
2024/01/19 09:59:38;;;;;;;;;;;;;;;-0.88;77.49;100918.72;4196376;28;20047;-70
2024/01/19 10:01:42;;;;;;;;;;;;;;;-0.84;77.48;100922.88;4196136;28;20441;-71
2024/01/19 10:03:44;;;;;;;;;;;;;;;-0.81;77.25;100925.34;4196542;28;20358;-70
2024/01/19 10:05:45;;;;;;;;;;;;;;;-0.76;77.27;100920.56;4197141;28;20619;-69
2024/01/19 10:07:47;;;;;;;;;;;;;;;-0.69;77.36;100926.34;4197298;28;20020;-70
2024/01/19 10:09:49;;;;;;;;;;;;;;;-0.63;77.57;100919.78;4197404;28;20011;-71
2024/01/19 10:11:52;;;;;;;;;;;;;;;-0.61;77.41;100926.69;4196764;28;20387;-70
2024/01/19 10:13:55;;;;;;;;;;;;;;;-0.56;77.35;100929.88;4197296;28;20890;-70
2024/01/19 10:15:57;;;;;;;;;;;;;;;-0.50;77.45;100922.47;4197531;28;20023;-69
2024/01/19 10:18:00;;;;;;;;;;;;;;;-0.45;77.22;100938.97;4197753;28;20018;-70
2024/01/19 10:20:02;;;;;;;;;;;;;;;-0.42;77.33;100936.94;4195244;28;20028;-70
2024/01/19 10:22:19;;;;;;;;;;;;;;;-0.37;77.38;100944.59;4196436;28;20351;-70
2024/01/19 10:24:21;;;;;;;;;;;;;;;-0.32;77.25;100953.09;4193995;28;20034;-70
2024/01/19 10:26:23;;;;;;;;;;;;;;;-0.29;77.28;100942.28;4194627;28;20026;-69